Time;durP1;ratioP1;P1;durP2;ratioP2;P2;SDS_P1;SDS_P2;PMS_P1;PMS_P2;Temp;Humidity;BMP_temperature;BMP_pressure;BME280_temperature;BME280_humidity;BME280_pressure;Samples;Min_cycle;Max_cycle;Signal;HPM_P1;HPM_P2
2022/06/05 00:00:05;;;;;;;4.03;3.65;;;;;;;;;;517790;28;1171;-83
2022/06/05 00:00:22;;;;;;;3.83;3.53;;;;;;;;;;517565;28;1687;-84
2022/06/05 00:00:51;;;;;;;3.90;3.60;;;;;;;;;;517239;28;1478;-84
2022/06/05 00:01:16;;;;;;;4.75;3.70;;;;;;;;;;517018;28;1557;-83
2022/06/05 00:01:50;;;;;;;3.85;3.55;;;;;;;;;;518978;28;1676;-84
2022/06/05 00:02:39;;;;;;;4.15;3.67;;;;;;;;;;518611;28;1271;-83
2022/06/05 00:03:34;;;;;;;4.57;3.60;;;;;;;;;;518452;28;1556;-83
2022/06/05 00:04:06;;;;;;;4.10;3.70;;;;;;;;;;518930;28;1565;-83
2022/06/05 00:04:37;;;;;;;4.28;3.95;;;;;;;;;;520582;28;1618;-83
2022/06/05 00:05:14;;;;;;;4.60;3.70;;;;;;;;;;520258;28;1544;-83
2022/06/05 00:05:44;;;;;;;4.00;3.70;;;;;;;;;;521543;28;1552;-83
2022/06/05 00:06:03;;;;;;;4.10;3.70;;;;;;;;;;520474;28;1467;-83
2022/06/05 00:06:27;;;;;;;4.32;3.60;;;;;;;;;;521489;28;1347;-83
2022/06/05 00:06:55;;;;;;;4.07;3.65;;;;;;;;;;521178;28;1757;-83
2022/06/05 00:07:32;;;;;;;4.20;3.80;;;;;;;;;;519497;28;1616;-83
2022/06/05 00:08:17;;;;;;;4.18;3.80;;;;;;;;;;516771;28;1580;-83
2022/06/05 00:08:43;;;;;;;4.07;3.78;;;;;;;;;;519427;28;1522;-84
2022/06/05 00:09:13;;;;;;;4.00;3.70;;;;;;;;;;517885;28;1707;-84
2022/06/05 00:09:39;;;;;;;4.18;3.78;;;;;;;;;;516584;28;1515;-84
2022/06/05 00:10:01;;;;;;;4.03;3.60;;;;;;;;;;519403;28;1726;-84
2022/06/05 00:10:21;;;;;;;3.90;3.60;;;;;;;;;;515894;28;1437;-83
2022/06/05 00:10:51;;;;;;;4.05;3.70;;;;;;;;;;517545;28;1437;-84
2022/06/05 00:11:08;;;;;;;3.90;3.60;;;;;;;;;;514979;28;1460;-83
2022/06/05 00:11:23;;;;;;;3.90;3.60;;;;;;;;;;513937;28;1424;-83
2022/06/05 00:11:48;;;;;;;4.13;3.80;;;;;;;;;;511825;29;1414;-84
2022/06/05 00:12:12;;;;;;;4.40;4.00;;;;;;;;;;510149;29;1393;-83
2022/06/05 00:12:35;;;;;;;4.22;3.83;;;;;;;;;;514575;28;1540;-83
2022/06/05 00:13:09;;;;;;;3.92;3.63;;;;;;;;;;516146;28;1299;-83
2022/06/05 00:13:52;;;;;;;4.10;3.70;;;;;;;;;;516015;28;1617;-85
2022/06/05 00:14:08;;;;;;;4.53;3.50;;;;;;;;;;511623;28;1527;-83
2022/06/05 00:14:23;;;;;;;4.18;3.80;;;;;;;;;;519076;28;1764;-83
2022/06/05 00:14:40;;;;;;;4.80;4.17;;;;;;;;;;519120;28;1620;-84
2022/06/05 00:14:55;;;;;;;5.50;4.20;;;;;;;;;;519066;28;1430;-84
2022/06/05 00:15:11;;;;;;;4.53;4.00;;;;;;;;;;517954;28;1305;-84
2022/06/05 00:15:27;;;;;;;5.43;3.75;;;;;;;;;;515939;28;1530;-84
2022/06/05 00:15:42;;;;;;;5.22;3.65;;;;;;;;;;516787;28;1653;-83
2022/06/05 00:15:58;;;;;;;3.90;3.60;;;;;;;;;;516555;28;1419;-84
2022/06/05 00:16:16;;;;;;;4.10;3.70;;;;;;;;;;517634;28;1714;-84
2022/06/05 00:16:31;;;;;;;4.28;3.80;;;;;;;;;;514927;28;1695;-84
2022/06/05 00:16:47;;;;;;;4.80;3.80;;;;;;;;;;515832;28;1542;-84
2022/06/05 00:17:03;;;;;;;4.30;3.67;;;;;;;;;;513870;28;1812;-84
2022/06/05 00:17:21;;;;;;;4.10;3.63;;;;;;;;;;512811;28;1400;-84
2022/06/05 00:17:36;;;;;;;4.03;3.60;;;;;;;;;;514182;28;910;-84
2022/06/05 00:17:51;;;;;;;4.20;3.80;;;;;;;;;;514166;28;1013;-84
2022/06/05 00:18:07;;;;;;;4.40;4.00;;;;;;;;;;514506;28;1017;-84
2022/06/05 00:18:23;;;;;;;4.38;3.90;;;;;;;;;;516545;28;1439;-84
2022/06/05 00:18:39;;;;;;;4.47;3.80;;;;;;;;;;518735;28;1197;-84
2022/06/05 00:18:55;;;;;;;4.13;3.60;;;;;;;;;;519812;28;1727;-84
2022/06/05 00:19:10;;;;;;;4.07;3.53;;;;;;;;;;520558;28;1525;-84
2022/06/05 00:19:26;;;;;;;4.07;3.67;;;;;;;;;;519711;28;1294;-84
2022/06/05 00:19:44;;;;;;;4.20;3.80;;;;;;;;;;517578;28;1593;-84
2022/06/05 00:20:00;;;;;;;4.13;3.72;;;;;;;;;;517684;28;1383;-83
2022/06/05 00:20:16;;;;;;;4.07;3.78;;;;;;;;;;517689;28;1415;-84
2022/06/05 00:20:31;;;;;;;4.22;3.83;;;;;;;;;;518731;28;1557;-83
2022/06/05 00:20:47;;;;;;;4.53;3.77;;;;;;;;;;517758;28;1376;-84
2022/06/05 00:21:03;;;;;;;4.10;3.70;;;;;;;;;;517891;28;1271;-84
2022/06/05 00:21:19;;;;;;;3.95;3.65;;;;;;;;;;518576;28;1232;-83
2022/06/05 00:21:35;;;;;;;4.20;3.80;;;;;;;;;;517480;28;1561;-84
2022/06/05 00:21:50;;;;;;;4.23;3.83;;;;;;;;;;516495;28;954;-84
2022/06/05 00:22:06;;;;;;;4.35;3.95;;;;;;;;;;515581;28;1667;-84
2022/06/05 00:22:22;;;;;;;4.50;4.10;;;;;;;;;;515719;28;1530;-84
2022/06/05 00:22:39;;;;;;;4.32;3.92;;;;;;;;;;515615;28;1316;-84
2022/06/05 00:22:54;;;;;;;4.00;3.60;;;;;;;;;;516326;28;1542;-83
2022/06/05 00:23:10;;;;;;;3.83;3.50;;;;;;;;;;515629;28;1511;-84
2022/06/05 00:23:26;;;;;;;3.90;3.60;;;;;;;;;;514363;28;1191;-83
2022/06/05 00:23:42;;;;;;;4.10;3.75;;;;;;;;;;514211;28;1497;-84
2022/06/05 00:23:57;;;;;;;4.20;3.80;;;;;;;;;;513534;28;1338;-83
2022/06/05 00:24:13;;;;;;;3.95;3.65;;;;;;;;;;513529;28;1532;-83
2022/06/05 00:24:28;;;;;;;4.10;3.80;;;;;;;;;;515425;28;1402;-83
2022/06/05 00:24:44;;;;;;;4.47;4.00;;;;;;;;;;515146;28;1598;-84
2022/06/05 00:24:59;;;;;;;4.87;3.90;;;;;;;;;;516719;28;1478;-84
2022/06/05 00:25:15;;;;;;;4.90;3.75;;;;;;;;;;516040;28;1169;-84
2022/06/05 00:25:43;;;;;;;4.60;3.70;;;;;;;;;;512715;28;1362;-84
2022/06/05 00:26:13;;;;;;;3.90;3.60;;;;;;;;;;510359;28;1666;-83
2022/06/05 00:26:31;;;;;;;4.72;3.88;;;;;;;;;;513352;28;1399;-83
2022/06/05 00:27:04;;;;;;;4.22;3.83;;;;;;;;;;514513;28;1437;-84
2022/06/05 00:27:38;;;;;;;4.28;3.90;;;;;;;;;;517713;28;1465;-83
2022/06/05 00:28:04;;;;;;;4.22;3.78;;;;;;;;;;518566;28;1465;-84
2022/06/05 00:28:41;;;;;;;4.10;3.70;;;;;;;;;;516793;28;1518;-84
2022/06/05 00:28:56;;;;;;;4.18;3.85;;;;;;;;;;517435;28;1531;-84
2022/06/05 00:29:34;;;;;;;4.10;3.80;;;;;;;;;;518171;28;1910;-84
2022/06/05 00:30:01;;;;;;;4.28;3.88;;;;;;;;;;520899;28;1520;-84
2022/06/05 00:30:25;;;;;;;4.43;3.90;;;;;;;;;;519139;28;1654;-84
2022/06/05 00:30:57;;;;;;;4.65;4.00;;;;;;;;;;519508;28;1493;-85
2022/06/05 00:31:24;;;;;;;4.20;3.80;;;;;;;;;;519216;28;1694;-84
2022/06/05 00:31:43;;;;;;;4.20;3.80;;;;;;;;;;519419;28;1540;-84
2022/06/05 00:32:22;;;;;;;5.25;3.92;;;;;;;;;;516569;28;1576;-84
2022/06/05 00:32:40;;;;;;;5.13;4.00;;;;;;;;;;511259;29;1460;-84
2022/06/05 00:33:23;;;;;;;4.00;3.65;;;;;;;;;;516354;28;1723;-84
2022/06/05 00:33:43;;;;;;;3.80;3.50;;;;;;;;;;519387;28;1665;-84
2022/06/05 00:33:59;;;;;;;3.95;3.50;;;;;;;;;;521382;28;1439;-84
2022/06/05 00:34:14;;;;;;;4.60;3.70;;;;;;;;;;521961;28;1962;-84
2022/06/05 00:34:30;;;;;;;4.70;3.80;;;;;;;;;;519376;28;1696;-84
2022/06/05 00:34:45;;;;;;;4.80;3.87;;;;;;;;;;519219;28;1582;-84
2022/06/05 00:35:00;;;;;;;4.20;3.80;;;;;;;;;;519732;28;1648;-84
2022/06/05 00:35:18;;;;;;;3.78;3.47;;;;;;;;;;520153;28;909;-84
2022/06/05 00:35:41;;;;;;;3.78;3.40;;;;;;;;;;519624;28;1493;-84
2022/06/05 00:36:03;;;;;;;3.97;3.58;;;;;;;;;;517280;28;1475;-84
2022/06/05 00:36:21;;;;;;;4.15;3.60;;;;;;;;;;517199;28;1487;-84
2022/06/05 00:36:43;;;;;;;4.72;3.75;;;;;;;;;;517947;28;1574;-85
2022/06/05 00:37:09;;;;;;;5.05;3.97;;;;;;;;;;517978;28;1550;-85
2022/06/05 00:37:46;;;;;;;4.30;3.60;;;;;;;;;;517431;28;1722;-84
2022/06/05 00:38:04;;;;;;;4.00;3.70;;;;;;;;;;519506;28;1458;-84
2022/06/05 00:38:36;;;;;;;3.80;3.50;;;;;;;;;;517904;28;1515;-84
2022/06/05 00:39:08;;;;;;;4.22;3.50;;;;;;;;;;515780;28;1760;-84
2022/06/05 00:39:38;;;;;;;4.10;3.80;;;;;;;;;;519337;28;1594;-83
2022/06/05 00:40:22;;;;;;;4.18;3.60;;;;;;;;;;517958;28;1324;-84
2022/06/05 00:41:00;;;;;;;4.20;3.90;;;;;;;;;;509786;29;1037;-84
2022/06/05 00:41:31;;;;;;;4.25;3.83;;;;;;;;;;508366;29;1440;-83
2022/06/05 00:41:59;;;;;;;3.92;3.63;;;;;;;;;;519181;28;1621;-84
2022/06/05 00:42:19;;;;;;;3.97;3.67;;;;;;;;;;517295;28;1534;-84
2022/06/05 00:42:34;;;;;;;3.90;3.60;;;;;;;;;;517583;28;1479;-84
2022/06/05 00:42:50;;;;;;;4.07;3.77;;;;;;;;;;517931;28;1513;-84
2022/06/05 00:43:12;;;;;;;4.50;3.70;;;;;;;;;;516655;28;1554;-84
2022/06/05 00:43:28;;;;;;;3.95;3.58;;;;;;;;;;517945;28;1317;-84
2022/06/05 00:43:44;;;;;;;4.25;3.70;;;;;;;;;;516847;28;1592;-84
2022/06/05 00:44:03;;;;;;;4.85;3.83;;;;;;;;;;517342;28;1465;-84
2022/06/05 00:44:30;;;;;;;4.22;3.83;;;;;;;;;;513714;28;1271;-84
2022/06/05 00:44:57;;;;;;;4.22;3.90;;;;;;;;;;515239;28;1415;-84
2022/06/05 00:45:13;;;;;;;4.20;3.90;;;;;;;;;;513451;28;1574;-84
2022/06/05 00:45:31;;;;;;;4.20;3.90;;;;;;;;;;513755;28;1566;-83
2022/06/05 00:45:46;;;;;;;4.30;3.90;;;;;;;;;;513596;28;1461;-83
2022/06/05 00:46:02;;;;;;;4.37;3.97;;;;;;;;;;515632;28;1232;-83
2022/06/05 00:46:18;;;;;;;4.25;3.95;;;;;;;;;;515521;28;1704;-84
2022/06/05 00:46:36;;;;;;;4.28;3.95;;;;;;;;;;516147;28;1530;-83
2022/06/05 00:46:52;;;;;;;4.30;3.90;;;;;;;;;;515866;28;1589;-83
2022/06/05 00:47:12;;;;;;;4.28;3.88;;;;;;;;;;515016;28;1436;-84
2022/06/05 00:47:32;;;;;;;4.20;3.80;;;;;;;;;;513951;28;1076;-83
2022/06/05 00:47:48;;;;;;;4.15;3.70;;;;;;;;;;516034;28;878;-84
2022/06/05 00:48:04;;;;;;;4.63;3.97;;;;;;;;;;514032;28;1278;-83
2022/06/05 00:48:20;;;;;;;5.75;4.00;;;;;;;;;;516953;28;1774;-84
2022/06/05 00:48:36;;;;;;;4.82;3.83;;;;;;;;;;516034;28;1633;-84
2022/06/05 00:48:52;;;;;;;4.10;3.80;;;;;;;;;;517880;28;1454;-84
2022/06/05 00:49:10;;;;;;;4.13;3.80;;;;;;;;;;517892;28;1969;-83
2022/06/05 00:49:36;;;;;;;4.10;3.80;;;;;;;;;;516000;28;1689;-84
2022/06/05 00:50:10;;;;;;;4.40;4.00;;;;;;;;;;515781;28;1389;-84
2022/06/05 00:50:28;;;;;;;4.20;3.80;;;;;;;;;;515340;28;1970;-83
2022/06/05 00:50:44;;;;;;;4.50;4.10;;;;;;;;;;513790;28;1316;-83
2022/06/05 00:51:00;;;;;;;4.65;4.00;;;;;;;;;;516486;28;1633;-83
2022/06/05 00:51:15;;;;;;;4.47;3.85;;;;;;;;;;517296;28;1431;-83
2022/06/05 00:51:31;;;;;;;4.13;3.73;;;;;;;;;;517623;28;1442;-85
2022/06/05 00:51:46;;;;;;;4.07;3.70;;;;;;;;;;515752;28;1168;-83
2022/06/05 00:52:03;;;;;;;4.23;3.90;;;;;;;;;;515672;28;1459;-83
2022/06/05 00:52:21;;;;;;;4.20;3.90;;;;;;;;;;515765;28;1270;-83
2022/06/05 00:52:41;;;;;;;4.18;3.80;;;;;;;;;;517135;28;1552;-83
2022/06/05 00:53:02;;;;;;;4.20;3.88;;;;;;;;;;517362;28;1530;-84
2022/06/05 00:53:18;;;;;;;4.25;3.85;;;;;;;;;;517653;28;1216;-84
2022/06/05 00:53:33;;;;;;;4.50;4.00;;;;;;;;;;517795;28;1451;-83
2022/06/05 00:53:50;;;;;;;4.32;3.90;;;;;;;;;;516904;28;1601;-84
2022/06/05 00:54:06;;;;;;;4.32;3.88;;;;;;;;;;515720;28;1570;-83
2022/06/05 00:54:22;;;;;;;4.65;3.80;;;;;;;;;;515869;28;905;-84
2022/06/05 00:54:37;;;;;;;4.90;4.03;;;;;;;;;;515494;28;1443;-84
2022/06/05 00:54:53;;;;;;;4.40;4.00;;;;;;;;;;515841;28;1608;-84
2022/06/05 00:55:11;;;;;;;4.13;3.83;;;;;;;;;;514564;28;1178;-84
2022/06/05 00:55:29;;;;;;;4.22;3.92;;;;;;;;;;515785;28;1558;-84
2022/06/05 00:55:48;;;;;;;4.18;3.78;;;;;;;;;;517067;28;1546;-84
2022/06/05 00:56:04;;;;;;;4.10;3.70;;;;;;;;;;517752;28;1297;-84
2022/06/05 00:56:19;;;;;;;4.30;4.00;;;;;;;;;;517580;28;1549;-84
2022/06/05 00:56:38;;;;;;;4.35;3.95;;;;;;;;;;519546;28;1021;-84
2022/06/05 00:56:53;;;;;;;4.07;3.70;;;;;;;;;;517983;28;1663;-84
2022/06/05 00:57:11;;;;;;;4.30;3.72;;;;;;;;;;519230;28;1572;-83
2022/06/05 00:57:30;;;;;;;4.97;3.95;;;;;;;;;;516872;28;1585;-84
2022/06/05 00:57:47;;;;;;;5.35;3.95;;;;;;;;;;517050;28;1762;-84
2022/06/05 00:58:03;;;;;;;4.00;3.60;;;;;;;;;;517221;28;1376;-84
2022/06/05 00:58:20;;;;;;;4.20;3.80;;;;;;;;;;515784;28;1323;-84
2022/06/05 00:58:35;;;;;;;4.47;4.00;;;;;;;;;;517039;28;1636;-84
2022/06/05 00:58:52;;;;;;;4.25;3.85;;;;;;;;;;515477;28;1534;-84
2022/06/05 00:59:10;;;;;;;4.30;3.90;;;;;;;;;;517367;28;1644;-84
2022/06/05 00:59:27;;;;;;;4.10;3.70;;;;;;;;;;516901;28;1515;-84
2022/06/05 00:59:45;;;;;;;3.95;3.65;;;;;;;;;;516146;28;1607;-84
2022/06/05 01:00:15;;;;;;;3.97;3.65;;;;;;;;;;515311;28;1419;-84
2022/06/05 01:00:34;;;;;;;4.00;3.70;;;;;;;;;;515919;28;1502;-84
2022/06/05 01:00:52;;;;;;;4.20;3.90;;;;;;;;;;515906;28;1341;-84
2022/06/05 01:01:08;;;;;;;4.40;4.00;;;;;;;;;;516753;28;1408;-84
2022/06/05 01:01:24;;;;;;;4.28;3.97;;;;;;;;;;517643;28;1594;-84
2022/06/05 01:01:41;;;;;;;4.10;3.80;;;;;;;;;;517950;28;889;-83
2022/06/05 01:01:57;;;;;;;4.03;3.72;;;;;;;;;;519374;28;1514;-84
2022/06/05 01:02:13;;;;;;;4.20;3.90;;;;;;;;;;517626;28;1444;-84
2022/06/05 01:02:29;;;;;;;4.30;3.90;;;;;;;;;;517756;28;1463;-84
2022/06/05 01:02:49;;;;;;;4.10;3.70;;;;;;;;;;516975;28;1647;-84
2022/06/05 01:03:08;;;;;;;3.93;3.60;;;;;;;;;;514792;28;949;-84
2022/06/05 01:03:24;;;;;;;5.15;3.60;;;;;;;;;;516307;28;1665;-84
2022/06/05 01:03:40;;;;;;;4.77;3.70;;;;;;;;;;517587;28;1746;-84
2022/06/05 01:04:01;;;;;;;4.65;3.80;;;;;;;;;;515762;28;1311;-84
2022/06/05 01:04:18;;;;;;;4.10;3.65;;;;;;;;;;518537;28;1067;-84
2022/06/05 01:04:35;;;;;;;4.10;3.65;;;;;;;;;;520057;28;1514;-84
2022/06/05 01:04:51;;;;;;;4.38;3.70;;;;;;;;;;519677;28;1554;-84
2022/06/05 01:05:09;;;;;;;4.13;3.72;;;;;;;;;;518400;28;1435;-83
2022/06/05 01:05:26;;;;;;;4.35;3.95;;;;;;;;;;517123;28;1628;-84
2022/06/05 01:05:42;;;;;;;4.43;4.03;;;;;;;;;;515490;28;1563;-84
2022/06/05 01:05:57;;;;;;;4.25;3.95;;;;;;;;;;514821;28;1666;-84
2022/06/05 01:06:13;;;;;;;4.38;3.97;;;;;;;;;;513748;28;1453;-84
2022/06/05 01:06:31;;;;;;;4.30;3.90;;;;;;;;;;514023;28;1461;-84
2022/06/05 01:06:46;;;;;;;4.38;3.90;;;;;;;;;;514088;28;1530;-84
2022/06/05 01:07:02;;;;;;;4.32;3.92;;;;;;;;;;514777;28;1625;-84
2022/06/05 01:07:20;;;;;;;4.10;3.80;;;;;;;;;;514371;28;1035;-84
2022/06/05 01:07:35;;;;;;;4.10;3.80;;;;;;;;;;515411;28;1658;-84
2022/06/05 01:07:52;;;;;;;4.07;3.77;;;;;;;;;;514190;28;1510;-84
2022/06/05 01:08:09;;;;;;;4.13;3.80;;;;;;;;;;514094;28;1503;-84
2022/06/05 01:08:25;;;;;;;4.10;3.80;;;;;;;;;;515254;28;1473;-84
2022/06/05 01:08:41;;;;;;;4.07;3.78;;;;;;;;;;517315;28;1665;-84
2022/06/05 01:08:57;;;;;;;4.10;3.80;;;;;;;;;;518071;28;1577;-84
2022/06/05 01:09:12;;;;;;;4.28;3.95;;;;;;;;;;518111;28;2359;-84
2022/06/05 01:09:28;;;;;;;4.80;4.20;;;;;;;;;;516282;28;1464;-83
2022/06/05 01:09:46;;;;;;;5.05;4.15;;;;;;;;;;516164;28;1616;-84
2022/06/05 01:10:02;;;;;;;4.30;3.90;;;;;;;;;;514035;28;1433;-84
2022/06/05 01:10:20;;;;;;;4.20;3.80;;;;;;;;;;515975;28;1519;-84
2022/06/05 01:10:54;;;;;;;3.90;3.58;;;;;;;;;;515224;28;1567;-84
2022/06/05 01:11:30;;;;;;;4.53;4.20;;;;;;;;;;517728;28;1471;-84
2022/06/05 01:12:04;;;;;;;4.20;3.90;;;;;;;;;;519826;28;1545;-83
2022/06/05 01:12:35;;;;;;;4.20;3.90;;;;;;;;;;519219;28;1391;-84
2022/06/05 01:13:10;;;;;;;4.30;3.80;;;;;;;;;;517700;28;1740;-84
2022/06/05 01:14:05;;;;;;;4.13;3.83;;;;;;;;;;517085;28;1625;-84
2022/06/05 01:14:26;;;;;;;4.20;3.80;;;;;;;;;;516764;28;1358;-84
2022/06/05 01:14:51;;;;;;;4.32;4.03;;;;;;;;;;515095;28;1885;-84
2022/06/05 01:15:09;;;;;;;4.50;4.10;;;;;;;;;;518110;28;1582;-84
2022/06/05 01:15:52;;;;;;;4.07;3.70;;;;;;;;;;519071;28;1884;-83
2022/06/05 01:16:19;;;;;;;4.30;3.90;;;;;;;;;;517773;28;1678;-84
2022/06/05 01:16:45;;;;;;;4.30;3.90;;;;;;;;;;520822;28;1517;-84
2022/06/05 01:18:02;;;;;;;4.20;3.65;;;;;;;;;;521472;28;936;-84
2022/06/05 01:18:50;;;;;;;4.20;3.85;;;;;;;;;;510671;29;1487;-84
2022/06/05 01:19:26;;;;;;;4.32;3.92;;;;;;;;;;511891;29;1605;-84
2022/06/05 01:19:47;;;;;;;4.43;3.80;;;;;;;;;;514053;28;1645;-84
2022/06/05 01:20:19;;;;;;;4.45;4.05;;;;;;;;;;514067;28;1709;-84
2022/06/05 01:21:02;;;;;;;3.97;3.50;;;;;;;;;;513090;28;1874;-84
2022/06/05 01:21:56;;;;;;;4.20;3.90;;;;;;;;;;512900;28;1646;-84
2022/06/05 01:22:34;;;;;;;4.28;3.97;;;;;;;;;;512325;28;1684;-84
2022/06/05 01:23:02;;;;;;;4.35;3.92;;;;;;;;;;513159;28;1604;-84
2022/06/05 01:23:33;;;;;;;4.30;3.90;;;;;;;;;;513809;28;1444;-84
2022/06/05 01:23:48;;;;;;;4.00;3.70;;;;;;;;;;515419;28;1648;-84
2022/06/05 01:24:12;;;;;;;4.07;3.78;;;;;;;;;;518419;28;1469;-84
2022/06/05 01:24:40;;;;;;;4.07;3.78;;;;;;;;;;521358;28;1595;-84
2022/06/05 01:25:11;;;;;;;4.40;4.00;;;;;;;;;;521408;28;1276;-84
2022/06/05 01:26:11;;;;;;;4.05;3.70;;;;;;;;;;520746;28;1580;-84
2022/06/05 01:26:40;;;;;;;4.47;4.07;;;;;;;;;;511324;28;1597;-83
2022/06/05 01:27:01;;;;;;;4.43;4.03;;;;;;;;;;514826;28;1562;-83
2022/06/05 01:27:21;;;;;;;4.47;4.00;;;;;;;;;;516061;28;1471;-83
2022/06/05 01:27:41;;;;;;;4.57;4.18;;;;;;;;;;514999;28;1591;-83
2022/06/05 01:28:01;;;;;;;4.72;4.03;;;;;;;;;;513509;28;1654;-83
2022/06/05 01:28:21;;;;;;;4.43;3.97;;;;;;;;;;512340;28;1778;-83
2022/06/05 01:28:44;;;;;;;4.78;4.00;;;;;;;;;;514553;28;1392;-83
2022/06/05 01:29:06;;;;;;;4.18;3.88;;;;;;;;;;511661;28;1534;-83
2022/06/05 01:29:25;;;;;;;4.50;4.05;;;;;;;;;;514177;28;1688;-83
2022/06/05 01:29:46;;;;;;;4.55;4.13;;;;;;;;;;515799;28;1440;-84
2022/06/05 01:30:08;;;;;;;4.47;4.07;;;;;;;;;;515925;28;1381;-83
2022/06/05 01:30:25;;;;;;;4.30;4.00;;;;;;;;;;516058;28;1476;-83
2022/06/05 01:30:57;;;;;;;4.35;3.97;;;;;;;;;;515440;28;1353;-83
2022/06/05 01:31:36;;;;;;;4.30;4.00;;;;;;;;;;513621;28;1501;-83
2022/06/05 01:31:57;;;;;;;4.32;3.92;;;;;;;;;;514866;28;1532;-83
2022/06/05 01:32:29;;;;;;;4.18;3.88;;;;;;;;;;514041;28;1718;-83
2022/06/05 01:32:59;;;;;;;4.25;3.85;;;;;;;;;;515505;28;1407;-83
2022/06/05 01:33:24;;;;;;;4.07;3.78;;;;;;;;;;517422;28;989;-83
2022/06/05 01:33:49;;;;;;;4.15;3.78;;;;;;;;;;516060;28;1423;-83
2022/06/05 01:34:32;;;;;;;4.25;3.85;;;;;;;;;;517093;28;1523;-83
2022/06/05 01:34:59;;;;;;;4.25;3.90;;;;;;;;;;515223;28;1871;-84
2022/06/05 01:35:26;;;;;;;4.38;3.97;;;;;;;;;;514152;28;1349;-84
2022/06/05 01:35:48;;;;;;;4.40;4.00;;;;;;;;;;514936;28;1425;-84
2022/06/05 01:36:15;;;;;;;4.35;3.95;;;;;;;;;;514878;28;1758;-84
2022/06/05 01:36:40;;;;;;;5.05;4.20;;;;;;;;;;514488;28;1529;-84
2022/06/05 01:37:10;;;;;;;4.43;4.03;;;;;;;;;;515257;28;1493;-84
2022/06/05 01:37:41;;;;;;;4.40;4.10;;;;;;;;;;514606;28;1452;-84
2022/06/05 01:38:02;;;;;;;4.32;3.92;;;;;;;;;;516534;28;1419;-84
2022/06/05 01:38:23;;;;;;;4.38;4.07;;;;;;;;;;515816;28;914;-84
2022/06/05 01:38:49;;;;;;;4.25;3.90;;;;;;;;;;514153;28;1603;-84
2022/06/05 01:39:19;;;;;;;5.30;4.20;;;;;;;;;;517014;28;1790;-84
2022/06/05 01:39:38;;;;;;;4.43;4.03;;;;;;;;;;515835;28;1499;-84
2022/06/05 01:40:17;;;;;;;5.38;4.07;;;;;;;;;;517506;28;1256;-84
2022/06/05 01:40:40;;;;;;;4.60;4.20;;;;;;;;;;520541;28;1574;-83
2022/06/05 01:40:59;;;;;;;4.47;4.07;;;;;;;;;;519924;28;1479;-84
2022/06/05 01:41:20;;;;;;;5.32;4.10;;;;;;;;;;519691;28;1466;-84
2022/06/05 01:41:45;;;;;;;4.75;4.05;;;;;;;;;;518930;28;1499;-84
2022/06/05 01:42:06;;;;;;;4.40;4.00;;;;;;;;;;516736;28;1423;-83
2022/06/05 01:42:38;;;;;;;4.60;4.20;;;;;;;;;;515706;28;1364;-84
2022/06/05 01:43:09;;;;;;;4.50;4.10;;;;;;;;;;514831;28;1529;-85
2022/06/05 01:43:30;;;;;;;4.53;4.13;;;;;;;;;;516431;28;1603;-84
2022/06/05 01:43:50;;;;;;;4.90;4.10;;;;;;;;;;517690;28;1494;-84
2022/06/05 01:44:11;;;;;;;4.60;4.18;;;;;;;;;;519635;28;1632;-84
2022/06/05 01:44:35;;;;;;;4.50;4.10;;;;;;;;;;522409;28;1574;-84
2022/06/05 01:44:57;;;;;;;5.03;4.18;;;;;;;;;;520527;28;1886;-84
2022/06/05 01:45:22;;;;;;;4.45;4.05;;;;;;;;;;519647;28;1512;-84
2022/06/05 01:45:44;;;;;;;4.63;4.22;;;;;;;;;;519526;28;1605;-84
2022/06/05 01:46:15;;;;;;;4.40;4.10;;;;;;;;;;521337;28;1802;-84
2022/06/05 01:46:34;;;;;;;4.50;4.10;;;;;;;;;;518023;28;1382;-85
2022/06/05 01:46:51;;;;;;;4.78;4.28;;;;;;;;;;517151;28;1508;-84
2022/06/05 01:47:17;;;;;;;4.78;4.38;;;;;;;;;;516979;28;1651;-84
2022/06/05 01:47:38;;;;;;;4.60;4.20;;;;;;;;;;517476;28;2641;-84
2022/06/05 01:47:55;;;;;;;4.85;4.30;;;;;;;;;;517650;28;929;-84
2022/06/05 01:48:39;;;;;;;4.97;4.50;;;;;;;;;;516558;28;1348;-84
2022/06/05 01:49:05;;;;;;;4.72;4.30;;;;;;;;;;508960;29;1472;-84
2022/06/05 01:49:30;;;;;;;4.57;4.18;;;;;;;;;;509411;29;1408;-84
2022/06/05 01:49:55;;;;;;;4.50;4.10;;;;;;;;;;511227;28;1379;-84
2022/06/05 01:50:42;;;;;;;4.65;4.22;;;;;;;;;;514508;28;1356;-84
2022/06/05 01:51:00;;;;;;;4.60;4.20;;;;;;;;;;515817;28;1355;-83
2022/06/05 01:51:32;;;;;;;4.80;4.40;;;;;;;;;;516370;28;1427;-84
2022/06/05 01:51:56;;;;;;;4.63;4.20;;;;;;;;;;517779;28;1387;-84
2022/06/05 01:52:24;;;;;;;4.60;4.20;;;;;;;;;;515611;28;1637;-84
2022/06/05 01:52:52;;;;;;;4.60;4.20;;;;;;;;;;513298;28;1558;-84
2022/06/05 01:53:18;;;;;;;4.80;4.40;;;;;;;;;;515945;28;1826;-84
2022/06/05 01:53:45;;;;;;;4.88;4.38;;;;;;;;;;517520;28;1315;-84
2022/06/05 01:54:07;;;;;;;4.63;4.07;;;;;;;;;;520066;28;1556;-84
2022/06/05 01:54:39;;;;;;;4.57;4.20;;;;;;;;;;519638;28;1498;-84
2022/06/05 01:55:02;;;;;;;4.75;4.30;;;;;;;;;;519214;28;1458;-84
2022/06/05 01:55:24;;;;;;;4.95;4.45;;;;;;;;;;519318;28;1368;-84
2022/06/05 01:55:52;;;;;;;4.50;4.15;;;;;;;;;;517854;28;1364;-83
2022/06/05 01:56:14;;;;;;;5.45;4.20;;;;;;;;;;515447;28;1451;-84
2022/06/05 01:56:38;;;;;;;4.55;4.15;;;;;;;;;;517664;28;1531;-84
2022/06/05 01:56:58;;;;;;;4.47;4.07;;;;;;;;;;515597;28;1587;-84
2022/06/05 01:57:16;;;;;;;4.43;4.03;;;;;;;;;;517338;28;1455;-84
2022/06/05 01:57:33;;;;;;;5.45;4.28;;;;;;;;;;518799;28;1476;-84
2022/06/05 01:57:52;;;;;;;4.90;4.40;;;;;;;;;;519112;28;1524;-83
2022/06/05 01:58:12;;;;;;;4.60;4.25;;;;;;;;;;519502;28;1686;-84
2022/06/05 01:58:39;;;;;;;4.50;4.10;;;;;;;;;;516861;28;1541;-84
2022/06/05 01:59:06;;;;;;;4.60;4.20;;;;;;;;;;518783;28;1515;-84
2022/06/05 01:59:32;;;;;;;5.10;4.38;;;;;;;;;;516858;28;1400;-84
2022/06/05 01:59:55;;;;;;;4.47;4.18;;;;;;;;;;516889;28;1474;-84
2022/06/05 02:00:17;;;;;;;4.30;4.00;;;;;;;;;;517350;28;1395;-84
2022/06/05 02:00:33;;;;;;;4.60;4.20;;;;;;;;;;518272;28;1482;-84
2022/06/05 02:00:51;;;;;;;4.43;4.03;;;;;;;;;;518382;28;1451;-84
2022/06/05 02:01:17;;;;;;;4.50;4.10;;;;;;;;;;518153;28;1400;-84
2022/06/05 02:01:39;;;;;;;4.70;4.30;;;;;;;;;;516682;28;1756;-85
2022/06/05 02:01:58;;;;;;;4.47;4.07;;;;;;;;;;516951;28;1414;-84
2022/06/05 02:02:19;;;;;;;4.03;3.72;;;;;;;;;;519369;28;1406;-84
2022/06/05 02:02:57;;;;;;;4.35;3.95;;;;;;;;;;519321;28;1606;-84
2022/06/05 02:03:21;;;;;;;5.63;4.20;;;;;;;;;;521536;28;1769;-84
2022/06/05 02:03:51;;;;;;;4.40;4.00;;;;;;;;;;519322;28;1476;-84
2022/06/05 02:04:21;;;;;;;4.40;4.00;;;;;;;;;;521495;28;1516;-84
2022/06/05 02:04:48;;;;;;;4.55;4.15;;;;;;;;;;520767;28;1738;-83
2022/06/05 02:05:11;;;;;;;5.35;4.15;;;;;;;;;;518981;28;1324;-84
2022/06/05 02:05:31;;;;;;;5.45;4.32;;;;;;;;;;519676;28;1328;-83
2022/06/05 02:06:00;;;;;;;4.57;4.18;;;;;;;;;;517376;28;1410;-84
2022/06/05 02:06:21;;;;;;;4.85;4.35;;;;;;;;;;516039;28;1510;-83
2022/06/05 02:06:43;;;;;;;5.53;4.53;;;;;;;;;;516607;28;1642;-84
2022/06/05 02:07:23;;;;;;;5.30;4.28;;;;;;;;;;518534;28;1575;-84
2022/06/05 02:07:44;;;;;;;4.50;4.18;;;;;;;;;;519848;28;1658;-84
2022/06/05 02:08:10;;;;;;;4.82;4.43;;;;;;;;;;519283;28;1249;-84
2022/06/05 02:08:41;;;;;;;4.50;4.13;;;;;;;;;;518698;28;1412;-84
2022/06/05 02:09:21;;;;;;;4.50;4.10;;;;;;;;;;520631;28;1798;-84
2022/06/05 02:09:40;;;;;;;4.88;4.38;;;;;;;;;;519361;28;1605;-84
2022/06/05 02:10:04;;;;;;;5.43;4.45;;;;;;;;;;517942;28;1261;-84
2022/06/05 02:10:35;;;;;;;5.32;4.30;;;;;;;;;;517663;28;1408;-84
2022/06/05 02:11:11;;;;;;;4.95;4.45;;;;;;;;;;517824;28;1526;-84
2022/06/05 02:11:28;;;;;;;4.60;4.20;;;;;;;;;;517073;28;1096;-84
2022/06/05 02:11:44;;;;;;;4.60;4.20;;;;;;;;;;517796;28;1550;-84
2022/06/05 02:12:02;;;;;;;5.03;4.32;;;;;;;;;;519921;28;1259;-84
2022/06/05 02:12:18;;;;;;;5.22;4.65;;;;;;;;;;519423;28;1364;-84
2022/06/05 02:12:34;;;;;;;5.05;4.65;;;;;;;;;;519304;28;1441;-84
2022/06/05 02:12:51;;;;;;;5.07;4.47;;;;;;;;;;521402;28;1580;-84
2022/06/05 02:13:06;;;;;;;5.40;4.45;;;;;;;;;;519371;28;1500;-84
2022/06/05 02:13:22;;;;;;;4.90;4.50;;;;;;;;;;518945;28;1596;-84
2022/06/05 02:13:37;;;;;;;5.17;4.67;;;;;;;;;;517838;28;1426;-84
2022/06/05 02:14:00;;;;;;;5.10;4.60;;;;;;;;;;519737;28;1616;-84
2022/06/05 02:14:15;;;;;;;5.05;4.65;;;;;;;;;;517282;28;1640;-84
2022/06/05 02:14:31;;;;;;;4.85;4.45;;;;;;;;;;516933;28;1606;-84
2022/06/05 02:14:47;;;;;;;5.33;4.70;;;;;;;;;;517835;28;1657;-84
2022/06/05 02:15:04;;;;;;;5.60;5.00;;;;;;;;;;517206;28;1780;-83
2022/06/05 02:15:20;;;;;;;5.05;4.55;;;;;;;;;;515721;28;1611;-83
2022/06/05 02:15:35;;;;;;;5.60;4.72;;;;;;;;;;515447;28;1400;-84
2022/06/05 02:15:52;;;;;;;5.45;4.82;;;;;;;;;;511820;28;1605;-84
2022/06/05 02:16:08;;;;;;;5.10;4.60;;;;;;;;;;514300;28;1656;-84
2022/06/05 02:16:25;;;;;;;5.30;4.60;;;;;;;;;;514151;28;1165;-84
2022/06/05 02:16:41;;;;;;;5.65;4.50;;;;;;;;;;513746;28;1566;-84
2022/06/05 02:16:58;;;;;;;5.10;4.60;;;;;;;;;;513929;28;1462;-84
2022/06/05 02:17:14;;;;;;;5.18;4.68;;;;;;;;;;515122;28;1526;-84
2022/06/05 02:17:30;;;;;;;5.10;4.60;;;;;;;;;;515843;28;1604;-84
2022/06/05 02:17:46;;;;;;;4.97;4.47;;;;;;;;;;515873;28;1440;-84
2022/06/05 02:18:04;;;;;;;5.05;4.55;;;;;;;;;;515738;28;1448;-83
2022/06/05 02:18:20;;;;;;;5.10;4.60;;;;;;;;;;516627;28;1503;-84
2022/06/05 02:18:35;;;;;;;4.93;4.50;;;;;;;;;;515552;28;1560;-84
2022/06/05 02:18:51;;;;;;;5.10;4.57;;;;;;;;;;516812;28;1546;-84
2022/06/05 02:19:12;;;;;;;5.00;4.53;;;;;;;;;;515793;28;1189;-84
2022/06/05 02:19:27;;;;;;;4.90;4.50;;;;;;;;;;515635;28;1760;-84